Willow River, Canada
Current Conditions -  °F | °C
As of 11:00 AM on Tuesday 21 Oct 2014 (Local Time) from CYXS Reporting Station
Few Clouds Few Clouds  
Wind Chill: 52°   Ceiling: Unl
Heat Index: 52°   Visibility: 9mi
Dew Point: 41°   Wind: 18mph
Humidity: 67%   Direction: 170°S
Pressure: 29.57"   Gusts: 25mph
Location:  54.07°N, 122.47°W
Report Text: CYXS 211800Z AUTO 17016G22KT 9SM FEW140 11/05 A2957 RMK SLP032 DENSITY ALT 2700FT
Loading
Personal Weather Stations






























Interactive Weather Map
Tropical Storm Tracking
New forecast layout! Learn more

10-Day Weather Forecast

Advertisements
Track Severe Weather on mobile